Webster, New Hampshire
Current Conditions -  °F | °C
As of 9:51 AM on Wednesday 26 Nov 2014 (Local Time) from KCON Reporting Station
Overcast Overcast  
Wind Chill: 39°   Ceiling: 6500
Heat Index: 39°   Visibility: 10mi
Dew Point: 27°   Wind: 0mph
Humidity: 62%   Direction: NA
Pressure: 30.16"   Gusts: NA
Location:  43.3208°N, 71.6638°W
Report Text: KCON 261451Z AUTO 00000KT 10SM OVC065 04/M03 A3016 RMK AO2 SLP217 T00391028 58012
Loading
Personal Weather Stations






























Interactive Weather Map New forecast layout! Learn more

10-Day Weather Forecast

Advertisements
Track Severe Weather on mobile